Time;durP1;ratioP1;P1;durP2;ratioP2;P2;SDS_P1;SDS_P2;PMS_P1;PMS_P2;Temp;Humidity;BMP_temperature;BMP_pressure;BME280_temperature;BME280_humidity;BME280_pressure;Samples;Min_cycle;Max_cycle;Signal;HPM_P1;HPM_P2
2022/07/14 00:02:05;;;;;;;5.70;1.33;;;;;;;15.69;100.00;102172.22;4996578;28;20205;-73
2022/07/14 00:04:30;;;;;;;2.70;0.90;;;;;;;15.15;100.00;102118.84;4999015;28;20178;-73
2022/07/14 00:06:56;;;;;;;5.57;1.10;;;;;;;15.35;100.00;102136.00;4998166;28;20686;-73
2022/07/14 00:09:21;;;;;;;4.90;1.73;;;;;;;15.44;100.00;102163.72;5001057;28;20260;-73
2022/07/14 00:11:46;;;;;;;5.10;1.83;;;;;;;15.49;100.00;102146.91;5000084;28;20223;-72
2022/07/14 00:14:12;;;;;;;3.67;1.30;;;;;;;15.68;100.00;102175.13;5001913;28;20197;-73
2022/07/14 00:16:37;;;;;;;2.20;1.33;;;;;;;15.63;100.00;102150.53;5002111;28;20185;-73
2022/07/14 00:19:03;;;;;;;4.90;1.57;;;;;;;15.88;100.00;102165.25;5003659;28;20672;-73
2022/07/14 00:21:29;;;;;;;2.53;1.20;;;;;;;15.77;100.00;102171.22;5000109;28;20213;-73
2022/07/14 00:23:54;;;;;;;4.03;1.33;;;;;;;15.84;100.00;102165.84;5002196;28;20259;-73
2022/07/14 00:26:19;;;;;;;3.77;1.20;;;;;;;15.60;100.00;102135.53;5001062;28;20341;-73
2022/07/14 00:28:45;;;;;;;5.80;1.50;;;;;;;15.78;100.00;102152.09;5004245;28;20193;-73
2022/07/14 00:31:12;;;;;;;3.23;1.17;;;;;;;15.77;100.00;102165.81;5002626;28;20581;-73
2022/07/14 00:33:38;;;;;;;6.67;1.47;;;;;;;15.14;100.00;102058.56;5002295;28;20275;-72
2022/07/14 00:36:04;;;;;;;3.00;1.23;;;;;;;15.70;100.00;102157.66;5001717;28;20452;-73
2022/07/14 00:38:30;;;;;;;3.83;1.33;;;;;;;15.79;100.00;102163.72;4996330;28;20436;-72
2022/07/14 00:40:55;;;;;;;4.07;1.30;;;;;;;15.46;100.00;102158.97;5004155;28;20818;-73
2022/07/14 00:43:21;;;;;;;2.40;1.03;;;;;;;15.56;100.00;102164.84;5002854;28;20201;-73
2022/07/14 00:45:47;;;;;;;3.40;1.97;;;;;;;15.56;100.00;102128.84;5002076;28;20194;-73
2022/07/14 00:48:12;;;;;;;4.10;1.23;;;;;;;15.33;100.00;102083.19;5000139;28;20760;-72
2022/07/14 00:50:41;;;;;;;7.80;1.63;;;;;;;15.91;100.00;102161.28;5000175;28;20214;-73
2022/07/14 00:53:08;;;;;;;6.27;1.33;;;;;;;15.68;100.00;102134.53;5000702;28;20729;-73
2022/07/14 00:55:36;;;;;;;4.60;1.10;;;;;;;15.94;100.00;102163.59;5002578;28;20471;-73
2022/07/14 00:58:02;;;;;;;4.17;1.10;;;;;;;15.84;100.00;102163.97;5004448;28;20425;-73
2022/07/14 01:00:28;;;;;;;4.97;1.50;;;;;;;15.69;100.00;102168.69;5003435;28;20447;-73
2022/07/14 01:02:53;;;;;;;7.43;1.67;;;;;;;15.71;100.00;102159.34;4999316;28;20468;-73
2022/07/14 01:05:19;;;;;;;4.57;1.63;;;;;;;15.90;100.00;102143.38;5000020;28;20221;-73
2022/07/14 01:07:47;;;;;;;2.77;1.10;;;;;;;15.96;100.00;102158.81;5000786;28;20209;-73
2022/07/14 01:10:12;;;;;;;3.07;1.00;;;;;;;15.60;100.00;102112.03;5002263;28;20236;-72
2022/07/14 01:12:44;;;;;;;4.30;1.27;;;;;;;15.69;100.00;102141.66;4998593;28;20460;-73
2022/07/14 01:15:10;;;;;;;3.67;1.77;;;;;;;15.29;100.00;102065.69;5001112;28;20200;-73
2022/07/14 01:17:36;;;;;;;3.67;1.30;;;;;;;15.74;100.00;102145.41;4999084;28;20448;-73
2022/07/14 01:20:02;;;;;;;4.77;1.77;;;;;;;15.60;100.00;102143.66;5000916;28;20460;-73
2022/07/14 01:22:28;;;;;;;3.67;1.27;;;;;;;15.47;100.00;102140.88;5000010;28;20209;-73
2022/07/14 01:24:53;;;;;;;6.43;1.50;;;;;;;15.18;100.00;102068.97;4999171;28;20442;-73
2022/07/14 01:27:18;;;;;;;3.10;1.00;;;;;;;15.18;100.00;102067.09;5001503;28;20186;-73
2022/07/14 01:29:44;;;;;;;4.83;1.67;;;;;;;15.67;100.00;102149.09;4998888;28;20199;-73
2022/07/14 01:32:09;;;;;;;5.13;1.47;;;;;;;15.71;100.00;102139.59;5000082;28;20671;-73
2022/07/14 01:34:35;;;;;;;4.13;1.30;;;;;;;15.71;100.00;102148.53;5002088;28;20225;-72
2022/07/14 01:37:00;;;;;;;5.70;1.47;;;;;;;15.63;100.00;102129.72;5000112;28;20726;-73
2022/07/14 01:39:26;;;;;;;4.87;1.17;;;;;;;15.50;100.00;102121.53;4998476;28;25085;-72
2022/07/14 01:41:51;;;;;;;4.50;1.40;;;;;;;15.49;100.00;102136.09;5000990;28;20205;-73
2022/07/14 01:44:16;;;;;;;3.20;1.20;;;;;;;15.50;100.00;102133.19;4999261;28;20300;-73
2022/07/14 01:46:42;;;;;;;3.77;1.50;;;;;;;15.55;100.00;102148.81;5001240;28;20196;-73
2022/07/14 01:49:08;;;;;;;6.00;1.50;;;;;;;15.35;100.00;102141.41;5000991;28;20204;-73
2022/07/14 01:51:34;;;;;;;3.80;1.60;;;;;;;14.96;100.00;102085.25;4996382;28;20213;-73
2022/07/14 01:54:00;;;;;;;9.23;1.20;;;;;;;14.73;100.00;102069.31;5001015;28;20582;-73
2022/07/14 01:56:25;;;;;;;4.83;1.30;;;;;;;15.06;100.00;102139.78;4996944;28;20185;-73
2022/07/14 01:58:51;;;;;;;3.03;1.70;;;;;;;14.90;100.00;102129.28;5001090;28;20239;-73
2022/07/14 02:04:02;;;;;;;2.67;1.10;;;;;;;14.86;100.00;102152.28;4996772;28;20197;-73
2022/07/14 02:06:29;;;;;;;3.00;1.20;;;;;;;14.85;100.00;102150.63;4999079;28;20541;-73
2022/07/14 02:08:55;;;;;;;4.43;1.43;;;;;;;14.83;100.00;102131.06;4999812;28;20444;-73
2022/07/14 02:14:05;;;;;;;5.50;1.67;;;;;;;14.41;100.00;102070.69;4999526;28;20463;-73
2022/07/14 02:16:31;;;;;;;3.43;1.43;;;;;;;14.91;100.00;102145.28;4998737;28;20447;-72
2022/07/14 02:18:57;;;;;;;8.20;1.67;;;;;;;15.09;100.00;102147.47;4997478;28;20666;-72
2022/07/14 02:21:23;;;;;;;3.33;1.20;;;;;;;14.79;100.00;102089.28;4996738;28;20210;-72
2022/07/14 02:23:48;;;;;;;5.03;1.27;;;;;;;14.88;100.00;102136.72;4998848;28;20539;-73
2022/07/14 02:26:14;;;;;;;4.97;1.40;;;;;;;14.65;100.00;102139.66;5001119;28;20444;-72
2022/07/14 02:28:40;;;;;;;6.50;1.70;;;;;;;14.38;100.00;102098.06;4998795;28;20208;-72
2022/07/14 02:31:09;;;;;;;3.30;1.20;;;;;;;14.64;100.00;102146.09;4997538;28;20235;-72
2022/07/14 02:33:36;;;;;;;5.20;1.60;;;;;;;14.62;100.00;102148.97;4995099;28;20531;-72
2022/07/14 02:36:02;;;;;;;4.00;2.10;;;;;;;14.21;100.00;102110.97;4998047;28;20449;-72
2022/07/14 02:38:27;;;;;;;6.27;1.63;;;;;;;14.51;100.00;102152.16;4995616;28;20517;-72
2022/07/14 02:40:53;;;;;;;3.67;1.43;;;;;;;14.25;100.00;102113.06;4996148;28;20200;-72
2022/07/14 02:43:18;;;;;;;4.07;1.37;;;;;;;14.58;100.00;102145.00;4998817;28;20728;-73
2022/07/14 02:45:44;;;;;;;3.33;1.17;;;;;;;14.19;100.00;102075.22;4999959;28;20216;-72
2022/07/14 02:48:09;;;;;;;4.17;1.10;;;;;;;14.43;100.00;102117.19;4998482;28;20565;-73
2022/07/14 02:50:40;;;;;;;6.40;2.27;;;;;;;14.55;100.00;102141.84;4998334;28;20623;-72
2022/07/14 02:53:06;;;;;;;2.43;1.40;;;;;;;14.24;100.00;102089.00;4998687;28;20216;-72
2022/07/14 02:55:34;;;;;;;4.80;1.53;;;;;;;14.39;100.00;102156.41;4995869;28;20965;-73
2022/07/14 02:58:00;;;;;;;6.37;2.00;;;;;;;14.32;100.00;102163.56;5001406;28;20451;-73
2022/07/14 03:00:25;;;;;;;5.20;1.80;;;;;;;14.54;100.00;102159.06;5000715;28;20432;-72
2022/07/14 03:02:51;;;;;;;9.00;2.23;;;;;;;14.37;100.00;102097.19;4998080;28;20293;-72
2022/07/14 03:05:16;;;;;;;6.37;1.90;;;;;;;14.65;100.00;102113.47;4995547;28;20181;-72
2022/07/14 03:07:42;;;;;;;7.03;1.47;;;;;;;14.75;100.00;102152.81;4998049;28;20195;-72
2022/07/14 03:10:08;;;;;;;4.67;1.47;;;;;;;14.60;100.00;102107.00;5000610;28;20185;-72
2022/07/14 03:12:34;;;;;;;5.27;1.37;;;;;;;14.70;100.00;102115.59;4996871;28;20216;-72
2022/07/14 03:15:00;;;;;;;2.73;1.37;;;;;;;14.18;100.00;102036.63;4999930;28;20556;-72
2022/07/14 03:17:26;;;;;;;3.47;1.30;;;;;;;14.93;100.00;102150.50;4997576;28;20212;-73
2022/07/14 03:19:51;;;;;;;5.90;1.40;;;;;;;14.89;100.00;102143.78;4998330;28;20577;-72
2022/07/14 03:22:17;;;;;;;5.20;1.40;;;;;;;14.84;100.00;102141.69;4999914;28;20550;-72
2022/07/14 03:24:42;;;;;;;5.30;1.40;;;;;;;15.04;100.00;102151.81;5000419;28;20185;-72
2022/07/14 03:27:08;;;;;;;4.80;1.30;;;;;;;14.69;100.00;102114.78;4998150;28;20235;-72
2022/07/14 03:29:34;;;;;;;7.73;1.57;;;;;;;14.53;100.00;102120.44;4996067;28;20196;-72
2022/07/14 03:31:59;;;;;;;3.87;1.30;;;;;;;14.45;100.00;102078.19;4999036;28;20722;-72
2022/07/14 03:34:24;;;;;;;4.83;1.20;;;;;;;14.97;100.00;102156.34;4998820;28;20339;-72
2022/07/14 03:36:50;;;;;;;6.63;1.73;;;;;;;15.04;100.00;102147.25;4997809;28;20192;-72
2022/07/14 03:39:15;;;;;;;8.00;2.30;;;;;;;14.68;100.00;102096.06;4998690;28;20204;-72
2022/07/14 03:41:41;;;;;;;4.83;1.53;;;;;;;14.87;100.00;102126.97;4997637;28;20233;-72
2022/07/14 03:44:06;;;;;;;7.60;2.17;;;;;;;15.11;100.00;102140.03;5000957;28;20192;-72
2022/07/14 03:46:32;;;;;;;3.10;1.40;;;;;;;15.10;100.00;102138.38;5000167;28;20184;-72
2022/07/14 03:48:57;;;;;;;4.80;1.47;;;;;;;15.02;100.00;102124.16;5003537;28;20185;-72
2022/07/14 03:51:22;;;;;;;6.70;1.47;;;;;;;14.47;100.00;102045.59;5002999;28;20204;-72
2022/07/14 03:53:48;;;;;;;4.77;1.37;;;;;;;14.68;100.00;102071.75;5001227;28;20212;-72
2022/07/14 03:56:13;;;;;;;3.87;1.47;;;;;;;14.83;100.00;102131.06;5002592;28;20268;-72
2022/07/14 03:58:38;;;;;;;4.87;1.30;;;;;;;15.02;100.00;102149.31;5001931;28;20189;-72
2022/07/14 04:01:04;;;;;;;5.33;1.33;;;;;;;15.04;100.00;102143.69;5000690;28;20208;-72
2022/07/14 04:03:30;;;;;;;6.23;1.50;;;;;;;14.91;100.00;102139.88;4999360;28;20239;-72
2022/07/14 04:05:57;;;;;;;4.43;1.47;;;;;;;14.95;100.00;102134.91;5000256;28;20551;-72
2022/07/14 04:08:22;;;;;;;6.13;1.37;;;;;;;15.16;100.00;102142.16;5002307;28;20435;-72
2022/07/14 04:10:48;;;;;;;3.50;1.30;;;;;;;15.25;100.00;102145.53;4999213;28;20986;-72
2022/07/14 04:13:14;;;;;;;3.87;1.20;;;;;;;15.08;100.00;102117.97;5001203;28;20197;-73
2022/07/14 04:15:40;;;;;;;5.17;1.53;;;;;;;15.25;100.00;102132.84;4999477;28;20213;-72
2022/07/14 04:18:06;;;;;;;4.40;1.60;;;;;;;15.05;100.00;102084.06;5001322;28;20444;-72
2022/07/14 04:20:31;;;;;;;5.30;1.50;;;;;;;15.47;100.00;102141.69;5000770;28;20479;-72
2022/07/14 04:22:56;;;;;;;6.77;1.93;;;;;;;15.35;100.00;102129.78;5004636;28;20227;-72
2022/07/14 04:25:22;;;;;;;5.10;1.20;;;;;;;15.46;100.00;102147.31;5000749;28;20181;-72
2022/07/14 04:27:47;;;;;;;3.70;1.43;;;;;;;15.18;100.00;102102.22;5002392;28;20224;-72
2022/07/14 04:30:14;;;;;;;5.20;1.70;;;;;;;15.64;100.00;102160.31;5000226;28;20178;-72
2022/07/14 04:32:39;;;;;;;5.23;1.67;;;;;;;15.01;100.00;102066.56;5000204;28;20208;-72
2022/07/14 04:35:05;;;;;;;5.50;2.27;;;;;;;15.54;100.00;102142.56;5001064;28;20464;-72
2022/07/14 04:37:30;;;;;;;5.20;1.57;;;;;;;15.60;100.00;102149.06;4996997;28;20783;-73
2022/07/14 04:39:56;;;;;;;4.43;1.47;;;;;;;15.07;100.00;102087.41;5003018;28;20244;-73
2022/07/14 04:42:22;;;;;;;3.77;1.40;;;;;;;15.61;100.00;102166.94;4999641;28;20615;-73
2022/07/14 04:44:48;;;;;;;2.37;1.13;;;;;;;15.63;100.00;102162.19;5001758;28;20224;-73
2022/07/14 04:47:14;;;;;;;3.10;1.57;;;;;;;15.33;100.00;102116.47;5000691;28;20905;-73
2022/07/14 04:52:24;;;;;;;6.87;1.90;;;;;;;15.13;100.00;102126.31;5001292;28;20463;-73
2022/07/14 04:54:49;;;;;;;4.50;1.53;;;;;;;15.42;100.00;102146.88;5000424;28;20832;-72
2022/07/14 04:57:14;;;;;;;4.67;2.00;;;;;;;15.10;100.00;102078.91;5000112;28;20263;-72
2022/07/14 04:59:40;;;;;;;4.80;1.60;;;;;;;15.38;100.00;102124.78;5003368;28;20367;-72
2022/07/14 05:02:06;;;;;;;8.40;2.30;;;;;;;15.32;100.00;102113.94;5000229;28;20212;-72
2022/07/14 05:04:31;;;;;;;5.00;1.40;;;;;;;15.42;100.00;102117.16;4998829;28;20264;-72
2022/07/14 05:06:57;;;;;;;8.57;1.63;;;;;;;15.58;100.00;102165.47;5000166;28;20204;-72
2022/07/14 05:09:25;;;;;;;3.90;1.50;;;;;;;15.75;100.00;102174.13;4998831;28;20266;-72
2022/07/14 05:11:51;;;;;;;5.40;1.33;;;;;;;15.68;100.00;102173.28;4997431;28;20247;-72
2022/07/14 05:14:17;;;;;;;3.90;1.60;;;;;;;15.69;100.00;102161.41;5001438;28;20487;-72
2022/07/14 05:16:45;;;;;;;5.70;1.80;;;;;;;15.71;100.00;102156.63;4999130;28;20439;-72
2022/07/14 05:19:11;;;;;;;4.57;1.33;;;;;;;15.30;100.00;102081.72;5000106;28;20181;-72
2022/07/14 05:21:36;;;;;;;3.43;1.37;;;;;;;15.67;100.00;102146.38;5000895;28;20460;-72
2022/07/14 05:24:02;;;;;;;7.93;2.03;;;;;;;15.57;100.00;102120.53;4999306;28;20440;-72
2022/07/14 05:26:27;;;;;;;3.70;1.30;;;;;;;15.81;100.00;102148.13;5001299;28;20204;-72
2022/07/14 05:28:53;;;;;;;5.57;1.60;;;;;;;15.87;100.00;102152.75;5000013;28;20189;-72
2022/07/14 05:31:19;;;;;;;5.87;1.37;;;;;;;15.88;100.00;102143.59;5000388;28;20232;-72
2022/07/14 05:33:44;;;;;;;4.97;1.20;;;;;;;15.75;100.00;102111.09;4998121;28;20223;-72
2022/07/14 05:36:09;;;;;;;3.53;1.40;;;;;;;16.07;100.00;102141.16;5002176;28;20515;-72
2022/07/14 05:38:35;;;;;;;2.93;1.27;;;;;;;15.81;100.00;102094.03;4997508;28;20749;-72
2022/07/14 05:41:01;;;;;;;4.10;1.40;;;;;;;15.48;100.00;102047.91;4995890;28;20212;-72
2022/07/14 05:43:27;;;;;;;4.43;1.60;;;;;;;16.22;100.00;102137.22;4999203;28;20189;-73
2022/07/14 05:45:53;;;;;;;3.90;1.17;;;;;;;16.28;100.00;102147.25;4997660;28;20899;-72
2022/07/14 05:48:18;;;;;;;4.53;1.20;;;;;;;16.21;100.00;102135.56;4995389;28;20977;-72
2022/07/14 05:50:44;;;;;;;2.83;1.00;;;;;;;16.23;100.00;102116.44;4996931;28;20635;-72
2022/07/14 05:53:09;;;;;;;5.47;1.30;;;;;;;16.25;100.00;102125.16;5000969;28;20185;-72
2022/07/14 05:55:35;;;;;;;3.90;1.17;;;;;;;16.20;100.00;102103.28;4992769;28;20216;-72
2022/07/14 05:58:00;;;;;;;5.53;1.83;;;;;;;16.11;100.00;102072.88;4990886;28;20192;-72
2022/07/14 06:00:26;;;;;;;2.70;1.00;;;;;;;16.57;100.00;102118.13;4999499;28;20173;-72
2022/07/14 06:02:51;;;;;;;2.80;1.20;;;;;;;16.06;100.00;102071.84;4998467;28;20201;-71
2022/07/14 06:05:16;;;;;;;3.33;1.07;;;;;;;16.48;100.00;102128.31;5000825;28;20235;-71
2022/07/14 06:07:42;;;;;;;2.27;0.93;;;;;;;16.39;100.00;102124.16;4997331;28;20177;-72
2022/07/14 06:10:11;;;;;;;3.40;0.73;;;;;;;16.59;100.00;102137.72;4999633;28;20197;-72
2022/07/14 06:12:39;;;;;;;4.30;1.60;;;;;;;16.22;100.00;102074.97;4995689;28;20431;-71
2022/07/14 06:15:05;;;;;;;3.17;1.00;;;;;;;16.09;100.00;102017.31;4999065;28;20460;-71
2022/07/14 06:17:34;;;;;;;2.00;1.00;;;;;;;16.98;100.00;102116.28;5001055;28;20436;-72
2022/07/14 06:20:07;;;;;;;2.97;0.80;;;;;;;16.26;100.00;102035.63;4997504;28;20497;-73
2022/07/14 06:22:37;;;;;;;2.60;0.90;;;;;;;17.03;100.00;102122.72;4996517;28;20537;-73
2022/07/14 06:25:04;;;;;;;1.90;0.80;;;;;;;16.98;100.00;102075.63;4997137;28;20508;-72
2022/07/14 06:27:30;;;;;;;3.20;0.90;;;;;;;16.80;100.00;102060.00;4997743;28;20447;-72
2022/07/14 06:29:55;;;;;;;2.33;1.00;;;;;;;17.16;100.00;102092.06;4999574;28;20569;-72
2022/07/14 06:32:21;;;;;;;2.90;0.90;;;;;;;17.26;100.00;102111.44;4997583;28;20663;-72
2022/07/14 06:34:46;;;;;;;3.73;0.97;;;;;;;17.18;100.00;102114.34;4996961;28;20211;-72
2022/07/14 06:37:12;;;;;;;2.10;0.73;;;;;;;17.17;100.00;102110.81;4998451;28;20192;-73
2022/07/14 06:39:37;;;;;;;1.87;0.90;;;;;;;16.61;100.00;102018.34;4995694;28;20186;-73
2022/07/14 06:42:03;;;;;;;2.30;0.80;;;;;;;17.16;100.00;102109.16;4997113;28;20685;-72
2022/07/14 06:44:29;;;;;;;2.40;0.80;;;;;;;17.00;100.00;102101.47;4995286;28;20208;-74
2022/07/14 06:46:55;;;;;;;3.03;0.80;;;;;;;16.95;100.00;102044.34;4997849;28;20443;-73
2022/07/14 06:49:21;;;;;;;2.37;1.00;;;;;;;16.92;100.00;102094.41;4996663;28;20929;-73
2022/07/14 06:51:46;;;;;;;1.57;0.80;;;;;;;16.76;100.00;102089.41;4996562;28;20213;-73
2022/07/14 06:54:12;;;;;;;1.70;0.90;;;;;;;16.77;100.00;102093.78;4996630;28;20678;-73
2022/07/14 06:56:37;;;;;;;2.77;0.77;;;;;;;16.88;100.00;102100.44;4999083;28;20197;-74
2022/07/14 06:59:02;;;;;;;2.00;0.80;;;;;;;17.01;100.00;102092.31;5000557;28;20188;-73
2022/07/14 07:01:28;;;;;;;1.60;0.70;;;;;;;16.83;100.00;102079.38;4990027;28;20354;-73
2022/07/14 07:03:53;;;;;;;1.93;0.93;;;;;;;16.83;100.00;102079.38;4998560;28;20189;-73
2022/07/14 07:09:03;;;;;;;3.83;0.80;;;;;;;16.55;100.00;102021.88;4999963;28;20189;-73
2022/07/14 07:11:28;;;;;;;2.47;0.70;;;;;;;17.14;100.00;102064.34;4999002;28;20457;-73
2022/07/14 07:13:53;;;;;;;1.00;0.70;;;;;;;17.51;100.00;102097.19;4998038;28;20606;-73
2022/07/14 07:16:19;;;;;;;1.77;0.60;;;;;;;17.43;100.00;102081.13;4999946;28;20193;-73
2022/07/14 07:18:44;;;;;;;2.17;0.80;;;;;;;17.70;100.00;102081.84;4992695;28;20204;-74
2022/07/14 07:21:14;;;;;;;0.80;0.73;;;;;;;17.63;100.00;102073.75;4995412;28;20472;-73
2022/07/14 07:23:44;;;;;;;2.13;0.80;;;;;;;17.44;100.00;102056.50;4997678;28;20185;-73
2022/07/14 07:26:10;;;;;;;1.70;0.77;;;;;;;17.60;100.00;102074.19;4990206;28;20523;-74
2022/07/14 07:28:35;;;;;;;1.87;0.77;;;;;;;17.60;100.00;102085.03;4992650;28;20484;-74
2022/07/14 07:31:01;;;;;;;1.60;0.83;;;;;;;17.63;100.00;102079.19;5000605;28;20459;-73
2022/07/14 07:33:26;;;;;;;3.63;0.80;;;;;;;17.31;100.00;102062.00;4998932;28;20697;-73
2022/07/14 07:35:52;;;;;;;1.47;0.77;;;;;;;17.65;100.00;102079.81;4995380;28;20644;-73
2022/07/14 07:38:18;;;;;;;2.00;0.70;;;;;;;17.47;100.00;102042.50;5000792;28;20275;-73
2022/07/14 07:40:44;;;;;;;2.00;0.90;;;;;;;17.61;100.00;102052.25;4999129;28;20731;-74
2022/07/14 07:43:10;;;;;;;1.20;0.60;;;;;;;18.07;100.00;102069.34;4998998;28;20439;-73
2022/07/14 07:45:35;;;;;;;3.43;0.80;;;;;;;17.87;100.00;102063.22;4998323;28;21307;-73
2022/07/14 07:48:03;;;;;;;1.10;0.60;;;;;;;17.81;100.00;102062.22;4998587;28;20592;-73
2022/07/14 07:50:29;;;;;;;2.33;0.87;;;;;;;17.95;100.00;102071.13;4998932;28;20240;-73
2022/07/14 07:52:55;;;;;;;4.20;0.90;;;;;;;17.94;100.00;102051.28;4998400;28;20866;-73
2022/07/14 07:55:20;;;;;;;2.70;0.70;;;;;;;18.27;100.00;102063.78;4999529;28;20599;-73
2022/07/14 07:57:46;;;;;;;1.00;0.50;;;;;;;17.70;100.00;101982.28;4998468;28;20185;-73
2022/07/14 08:00:13;;;;;;;2.00;0.67;;;;;;;17.99;100.00;102056.91;4999470;28;20225;-73
2022/07/14 08:02:50;;;;;;;0.60;0.57;;;;;;;18.09;100.00;102061.00;4994482;28;20296;-74
2022/07/14 08:05:21;;;;;;;2.23;0.83;;;;;;;17.58;100.00;101970.47;4995516;28;20944;-73
2022/07/14 08:07:47;;;;;;;1.00;0.67;;;;;;;18.30;100.00;102053.31;4996775;28;20441;-74
2022/07/14 08:10:13;;;;;;;0.87;0.63;;;;;;;18.19;100.00;102024.16;4995958;28;20450;-73
2022/07/14 08:12:38;;;;;;;1.97;0.70;;;;;;;18.47;100.00;102053.59;4992781;28;20463;-74
2022/07/14 08:15:06;;;;;;;1.67;0.60;;;;;;;18.28;100.00;102022.84;4997206;28;20211;-73
2022/07/14 08:17:31;;;;;;;2.10;0.70;;;;;;;17.80;100.00;101996.25;4995360;28;20856;-73
2022/07/14 08:19:56;;;;;;;2.87;0.80;;;;;;;18.49;100.00;102046.06;4996974;28;20980;-73
2022/07/14 08:22:24;;;;;;;1.67;0.70;;;;;;;18.38;100.00;102043.25;4997609;28;20212;-74
2022/07/14 08:24:50;;;;;;;0.70;0.60;;;;;;;18.50;100.00;102036.03;4994355;28;20238;-73
2022/07/14 08:27:15;;;;;;;3.43;0.70;;;;;;;18.39;100.00;102007.69;4995974;28;20441;-73
2022/07/14 08:29:42;;;;;;;2.50;0.70;;;;;;;18.61;100.00;102031.75;4994078;28;20624;-75
2022/07/14 08:32:07;;;;;;;1.17;0.70;;;;;;;18.32;100.00;102000.69;4991969;28;20228;-73
2022/07/14 08:34:32;;;;;;;1.07;0.60;;;;;;;18.52;100.00;102034.75;4998879;28;20468;-73
2022/07/14 08:37:00;;;;;;;3.60;0.90;;;;;;;18.70;100.00;102025.81;5002375;28;20195;-73
2022/07/14 08:39:26;;;;;;;4.40;0.80;;;;;;;18.11;100.00;101956.56;5003344;28;20199;-73
2022/07/14 08:41:54;;;;;;;1.50;0.70;;;;;;;18.23;100.00;102000.94;5002811;28;20946;-73
2022/07/14 08:44:20;;;;;;;1.50;0.50;;;;;;;18.25;100.00;101968.13;4997597;28;20447;-72
2022/07/14 08:46:46;;;;;;;2.90;0.80;;;;;;;18.31;100.00;101972.66;5000531;28;20441;-73
2022/07/14 08:49:14;;;;;;;1.70;0.70;;;;;;;18.56;100.00;101988.94;4996886;28;20456;-72
2022/07/14 08:51:40;;;;;;;2.30;0.63;;;;;;;18.55;100.00;101994.63;4997120;28;20487;-72
2022/07/14 08:54:09;;;;;;;1.40;0.70;;;;;;;18.28;100.00;101946.81;4996374;28;20508;-72
2022/07/14 08:56:35;;;;;;;2.47;0.80;;;;;;;18.72;100.00;102012.84;5001769;28;20185;-73
2022/07/14 08:59:00;;;;;;;3.50;0.73;;;;;;;18.55;100.00;101973.72;5002935;28;20431;-72
2022/07/14 09:01:26;;;;;;;1.10;0.70;;;;;;;18.59;100.00;101996.66;5001820;28;20512;-73
2022/07/14 09:03:55;;;;;;;4.03;0.80;;;;;;;18.25;100.00;101987.13;5005232;28;20185;-73
2022/07/14 09:06:51;;;;;;;2.10;0.70;;;;;;;18.73;100.00;102027.25;5001030;28;21128;-74
2022/07/14 09:09:19;;;;;;;1.63;0.70;;;;;;;18.57;100.00;101965.31;5001650;28;20419;-73
2022/07/14 09:12:07;;;;;;;2.23;0.60;;;;;;;18.90;100.00;102022.91;4997458;28;20495;-72
2022/07/14 09:17:25;;;;;;;1.57;0.70;;;;;;;18.64;100.00;101994.09;4999067;28;20434;-73
2022/07/14 09:20:04;;;;;;;1.60;0.63;;;;;;;19.16;100.00;102023.69;5002235;28;20444;-74
2022/07/14 09:22:32;;;;;;;2.13;1.00;;;;;;;19.34;100.00;102022.84;5004237;28;20550;-73
2022/07/14 09:24:58;;;;;;;0.80;0.60;;;;;;;19.04;100.00;102001.84;5000743;28;20413;-74
2022/07/14 09:27:23;;;;;;;1.57;0.70;;;;;;;18.87;100.00;102036.13;4993026;28;21055;-74
2022/07/14 09:29:55;;;;;;;1.73;0.70;;;;;;;18.82;100.00;102041.41;4996842;28;20527;-73
2022/07/14 09:32:44;;;;;;;2.40;0.60;;;;;;;19.13;100.00;102037.72;5000696;28;20216;-74
2022/07/14 09:35:11;;;;;;;1.23;0.60;;;;;;;19.24;100.00;102030.69;5000851;28;20455;-74
2022/07/14 09:37:39;;;;;;;1.87;0.60;;;;;;;18.96;100.00;101969.53;4999729;28;20451;-74
2022/07/14 09:40:06;;;;;;;1.00;0.60;;;;;;;19.02;100.00;101979.50;4994109;28;20471;-73
2022/07/14 09:42:53;;;;;;;2.33;0.60;;;;;;;18.75;100.00;101957.22;4991613;28;20555;-73
2022/07/14 09:45:21;;;;;;;1.27;0.70;;;;;;;19.25;100.00;102037.81;5000151;28;20443;-74
2022/07/14 09:47:56;;;;;;;1.67;0.60;;;;;;;19.27;100.00;102032.97;5001909;28;20871;-74
2022/07/14 09:50:38;;;;;;;1.20;0.70;;;;;;;19.33;100.00;102023.91;5001123;28;20810;-73
2022/07/14 09:53:14;;;;;;;2.00;0.70;;;;;;;19.28;100.00;102026.47;4996720;28;20512;-73
2022/07/14 09:56:07;;;;;;;1.70;0.70;;;;;;;19.43;100.00;102007.84;4998206;28;20472;-74
2022/07/14 09:58:45;;;;;;;4.87;0.70;;;;;;;19.37;100.00;102008.78;4999152;28;20524;-74
2022/07/14 10:01:14;;;;;;;4.00;0.70;;;;;;;19.70;100.00;102029.28;5003723;28;20542;-73
2022/07/14 10:03:42;;;;;;;0.70;0.70;;;;;;;20.07;100.00;102019.94;5000352;28;20444;-75
2022/07/14 10:06:08;;;;;;;1.67;0.60;;;;;;;19.48;100.00;102018.06;4997343;28;20447;-74
2022/07/14 10:08:40;;;;;;;1.53;0.60;;;;;;;19.89;100.00;102020.00;4996374;28;20444;-74
2022/07/14 10:11:06;;;;;;;0.80;0.60;;;;;;;19.81;100.00;101998.56;4997745;28;20471;-74
2022/07/14 10:13:32;;;;;;;1.37;0.70;;;;;;;19.53;100.00;102029.09;4999954;28;20440;-74
2022/07/14 10:15:58;;;;;;;1.53;0.60;;;;;;;19.14;100.00;102012.19;4998052;28;20819;-74
2022/07/14 10:18:26;;;;;;;1.57;0.77;;;;;;;19.63;100.00;102027.47;4997174;28;20193;-74
2022/07/14 10:20:54;;;;;;;2.40;0.70;;;;;;;19.49;100.00;102031.41;4993294;28;20448;-74
2022/07/14 10:23:21;;;;;;;1.80;1.00;;;;;;;19.28;100.00;102026.47;5001254;28;20436;-73
2022/07/14 10:25:48;;;;;;;2.93;0.80;;;;;;;19.52;100.00;102032.84;5000758;28;20846;-73
2022/07/14 10:28:15;;;;;;;1.83;0.70;;;;;;;19.32;100.00;101984.13;4998607;28;20451;-73
2022/07/14 10:31:07;;;;;;;1.20;0.63;;;;;;;19.74;100.00;102038.66;4998391;28;20471;-74
2022/07/14 10:33:38;;;;;;;2.10;0.90;;;;;;;19.84;100.00;102031.59;4997324;28;21292;-74
2022/07/14 10:36:23;;;;;;;2.63;1.30;;;;;;;19.59;100.00;102041.78;4998469;28;20980;-73
2022/07/14 10:39:16;;;;;;;2.03;0.90;;;;;;;19.54;100.00;102020.69;5000726;28;20919;-74
2022/07/14 10:42:06;;;;;;;1.90;0.70;;;;;;;19.94;100.00;102013.88;4998061;28;20448;-74
2022/07/14 10:44:35;;;;;;;1.63;0.67;;;;;;;19.81;100.00;101965.88;4996470;28;20439;-73
2022/07/14 10:47:10;;;;;;;2.13;0.67;;;;;;;19.71;100.00;102030.97;4992372;28;20449;-74
2022/07/14 10:50:04;;;;;;;6.47;0.70;;;;;;;19.92;100.00;102014.09;4996066;28;20952;-74
2022/07/14 10:52:31;;;;;;;2.10;0.80;;;;;;;20.12;100.00;101988.47;4998553;28;20448;-74
2022/07/14 10:55:19;;;;;;;3.13;0.80;;;;;;;19.91;100.00;102015.19;4999192;28;20464;-73
2022/07/14 10:57:59;;;;;;;0.97;0.60;;;;;;;19.82;100.00;102008.41;5002354;28;20409;-74
2022/07/14 11:00:43;;;;;;;2.20;0.63;;;;;;;19.80;100.00;102007.78;4998921;28;20446;-74
2022/07/14 11:03:37;;;;;;;2.60;0.70;;;;;;;19.48;100.00;102008.00;5000526;28;20448;-74
2022/07/14 11:06:11;;;;;;;3.03;0.80;;;;;;;19.41;100.00;102016.25;4998545;28;20432;-74
2022/07/14 11:08:45;;;;;;;3.13;0.83;;;;;;;19.69;100.00;102012.13;5000479;28;20502;-74
2022/07/14 11:11:19;;;;;;;0.83;0.70;;;;;;;19.43;100.00;102013.28;5000092;28;20451;-75
2022/07/14 11:14:13;;;;;;;2.13;0.80;;;;;;;19.11;100.00;101936.50;5001317;28;20424;-74
2022/07/14 11:16:45;;;;;;;3.13;0.90;;;;;;;19.64;100.00;102020.97;4996794;28;20465;-74
2022/07/14 11:19:20;;;;;;;4.23;1.00;;;;;;;19.64;100.00;102026.41;5000114;28;20836;-74
2022/07/14 11:22:16;;;;;;;1.57;0.80;;;;;;;19.43;100.00;102026.91;5001609;28;20550;-73
2022/07/14 11:24:57;;;;;;;2.83;0.90;;;;;;;19.32;100.00;102025.75;5001030;28;20421;-74
2022/07/14 11:27:25;;;;;;;1.53;0.80;;;;;;;19.46;100.00;102029.16;5001845;28;20948;-74
2022/07/14 11:29:51;;;;;;;2.60;0.90;;;;;;;19.31;100.00;102029.56;5000400;28;20499;-74
2022/07/14 11:32:29;;;;;;;1.73;0.63;;;;;;;18.88;100.00;101959.78;5000076;28;20551;-74
2022/07/14 11:37:59;;;;;;;0.90;0.57;;;;;;;19.25;100.00;102026.94;5000482;28;20407;-75